createdAt,value
2019-02-15T00:05:04.003Z,75.11
2019-02-15T00:07:32.094Z,71.55
2019-02-15T00:10:00.310Z,72.36
2019-02-15T00:12:28.341Z,70.13
2019-02-15T00:14:56.371Z,68.61
2019-02-15T00:17:43.533Z,69.48
2019-02-15T00:20:17.289Z,74.27
2019-02-15T00:22:45.364Z,68.44
2019-02-15T00:25:13.436Z,69.96
2019-02-15T00:27:41.442Z,69.42
2019-02-15T00:30:10.918Z,68.68
2019-02-15T00:32:39.053Z,75.10
2019-02-15T00:35:07.127Z,71.83
2019-02-15T00:37:35.077Z,77.22
2019-02-15T00:40:03.105Z,78.22
2019-02-15T00:42:31.113Z,76.43
2019-02-15T00:44:59.150Z,77.07
2019-02-15T00:47:42.815Z,71.55
2019-02-15T00:50:28.647Z,74.35
2019-02-15T00:53:21.409Z,77.54
2019-02-15T00:55:55.781Z,76.15
2019-02-15T00:58:36.292Z,78.61
2019-02-15T01:01:15.540Z,76.38
2019-02-15T01:04:01.957Z,76.54
2019-02-15T01:06:48.885Z,76.94
2019-02-15T01:09:38.923Z,75.93
2019-02-15T01:12:31.959Z,77.24
2019-02-15T01:14:59.981Z,72.78
2019-02-15T01:17:28.010Z,77.06
2019-02-15T01:19:56.178Z,78.53
2019-02-15T01:22:24.151Z,79.42
2019-02-15T01:24:52.344Z,71.14
2019-02-15T01:27:39.466Z,77.37
2019-02-15T01:30:26.742Z,78.78
2019-02-15T01:33:02.086Z,79.90
2019-02-15T01:35:48.995Z,81.00
2019-02-15T01:38:33.211Z,81.27
2019-02-15T01:41:10.912Z,81.34
2019-02-15T01:44:03.586Z,81.00
2019-02-15T01:46:50.569Z,81.63
2019-02-15T01:49:18.645Z,81.74
2019-02-15T01:51:46.741Z,82.20
2019-02-15T01:54:14.771Z,82.09
2019-02-15T01:56:43.087Z,82.29
2019-02-15T01:59:11.097Z,82.18
2019-02-15T02:01:39.130Z,82.17
2019-02-15T02:04:07.120Z,82.10
2019-02-15T02:06:35.131Z,82.02
2019-02-15T02:09:03.325Z,81.75
2019-02-15T02:11:31.389Z,81.56
2019-02-15T02:13:59.387Z,82.11
2019-02-15T02:16:27.396Z,82.05
2019-02-15T02:18:55.536Z,82.13
2019-02-15T02:21:23.566Z,82.22
2019-02-15T02:23:51.623Z,82.53
2019-02-15T02:26:19.686Z,82.46
2019-02-15T02:28:47.718Z,81.99
2019-02-15T02:31:15.752Z,82.46
2019-02-15T02:33:43.810Z,82.59
2019-02-15T02:36:11.868Z,82.54
2019-02-15T02:38:39.867Z,82.79
2019-02-15T02:41:07.928Z,82.94
2019-02-15T02:43:35.990Z,82.89
2019-02-15T02:46:04.008Z,82.96
2019-02-15T02:48:32.167Z,83.15
2019-02-15T02:51:00.163Z,83.15
2019-02-15T02:53:28.208Z,83.18
2019-02-15T02:55:56.254Z,83.08
2019-02-15T02:58:24.282Z,82.92
2019-02-15T03:00:52.340Z,83.01
2019-02-15T03:03:20.354Z,83.01
2019-02-15T03:05:48.375Z,82.75
2019-02-15T03:08:16.445Z,82.87
2019-02-15T03:10:44.415Z,82.76
2019-02-15T03:13:12.480Z,82.83
2019-02-15T03:15:40.509Z,82.82
2019-02-15T03:18:08.545Z,82.84
2019-02-15T03:20:36.634Z,82.95
2019-02-15T03:23:04.691Z,83.10
2019-02-15T03:25:32.731Z,82.41
2019-02-15T03:28:00.736Z,82.94
2019-02-15T03:30:28.850Z,81.82
2019-02-15T03:32:56.866Z,80.97
2019-02-15T03:35:24.889Z,74.32
2019-02-15T03:38:09.571Z,77.79
2019-02-15T03:40:43.127Z,81.24
2019-02-15T03:43:11.220Z,79.77
2019-02-15T03:45:39.296Z,81.49
2019-02-15T03:48:07.364Z,82.14
2019-02-15T03:50:35.395Z,82.52
2019-02-15T03:53:03.452Z,82.65
2019-02-15T03:55:31.458Z,83.04
2019-02-15T03:57:59.436Z,83.06
2019-02-15T04:00:27.441Z,83.13
2019-02-15T04:02:55.432Z,83.00
2019-02-15T04:05:23.440Z,83.13
2019-02-15T04:07:51.500Z,82.59
2019-02-15T04:10:19.601Z,83.06
2019-02-15T04:12:47.681Z,83.08
2019-02-15T04:15:16.037Z,83.10
2019-02-15T04:17:44.032Z,83.40
2019-02-15T04:20:12.045Z,83.34
2019-02-15T04:22:40.041Z,83.55
2019-02-15T04:25:08.213Z,83.35
2019-02-15T04:27:36.210Z,83.40
2019-02-15T04:30:04.295Z,83.45
2019-02-15T04:32:32.310Z,83.54
2019-02-15T04:35:00.342Z,83.52
2019-02-15T04:37:28.269Z,83.45
2019-02-15T04:39:56.350Z,82.56
2019-02-15T04:42:24.461Z,83.03
2019-02-15T04:44:52.573Z,83.16
2019-02-15T04:47:20.630Z,82.08
2019-02-15T04:49:48.704Z,82.76
2019-02-15T04:52:16.703Z,83.10
2019-02-15T04:54:44.710Z,83.37
2019-02-15T04:57:12.883Z,83.36
2019-02-15T04:59:41.146Z,83.28
2019-02-15T05:02:09.257Z,83.30
2019-02-15T05:04:37.251Z,83.30
2019-02-15T05:07:05.279Z,83.60
2019-02-15T05:09:33.313Z,83.25
2019-02-15T05:12:03.765Z,83.29
2019-02-15T05:14:31.225Z,83.41
2019-02-15T05:16:59.325Z,83.71
2019-02-15T05:19:27.375Z,83.74
2019-02-15T05:21:55.401Z,83.79
2019-02-15T05:24:23.449Z,83.59
2019-02-15T05:26:51.541Z,83.53
2019-02-15T05:29:19.583Z,83.60
2019-02-15T05:31:47.632Z,83.75
2019-02-15T05:34:15.665Z,83.68
2019-02-15T05:36:43.705Z,83.68
2019-02-15T05:39:11.804Z,83.07
2019-02-15T05:41:39.813Z,83.42
2019-02-15T05:44:07.755Z,83.49
2019-02-15T05:46:35.898Z,83.62
2019-02-15T05:49:03.929Z,83.70
2019-02-15T05:51:32.076Z,83.84
2019-02-15T05:54:00.072Z,83.78
2019-02-15T05:56:28.094Z,83.68
2019-02-15T05:58:56.135Z,83.85
2019-02-15T06:01:25.410Z,83.84
2019-02-15T06:03:53.458Z,83.96
2019-02-15T06:06:21.452Z,83.87
2019-02-15T06:08:49.504Z,83.79
2019-02-15T06:11:17.528Z,83.46
2019-02-15T06:13:45.631Z,83.41
2019-02-15T06:16:13.766Z,83.60
2019-02-15T06:18:41.775Z,83.59
2019-02-15T06:21:09.852Z,83.45
2019-02-15T06:23:37.824Z,83.38
2019-02-15T06:26:05.928Z,83.31
2019-02-15T06:28:33.950Z,83.46
2019-02-15T06:31:02.022Z,83.44
2019-02-15T06:33:29.997Z,83.32
2019-02-15T06:35:58.007Z,83.44
2019-02-15T06:38:34.522Z,83.62
2019-02-15T06:40:55.857Z,83.58
2019-02-15T06:43:23.887Z,83.38
2019-02-15T06:45:51.959Z,83.27
2019-02-15T06:48:20.097Z,83.62
2019-02-15T06:50:48.156Z,83.64
2019-02-15T06:53:16.309Z,83.31
2019-02-15T06:55:44.323Z,83.08
2019-02-15T06:58:12.362Z,83.01
2019-02-15T07:00:48.826Z,83.33
2019-02-15T07:03:40.140Z,83.36
2019-02-15T07:06:08.500Z,83.65
2019-02-15T07:08:36.554Z,83.39
2019-02-15T07:11:04.607Z,83.56
2019-02-15T07:13:32.631Z,83.25
2019-02-15T07:16:00.782Z,83.20
2019-02-15T07:18:28.783Z,82.91
2019-02-15T07:20:56.793Z,82.53
2019-02-15T07:23:24.870Z,81.63
2019-02-15T07:25:52.955Z,80.91
2019-02-15T07:28:21.009Z,81.95
2019-02-15T07:30:49.003Z,81.05
2019-02-15T07:33:17.044Z,80.57
2019-02-15T07:35:45.017Z,80.82
2019-02-15T07:38:13.085Z,80.89
2019-02-15T07:40:41.129Z,80.86
2019-02-15T07:43:09.121Z,80.68
2019-02-15T07:45:42.837Z,80.36
2019-02-15T07:48:07.095Z,80.47
2019-02-15T07:50:35.162Z,80.24
2019-02-15T07:53:03.263Z,80.25
2019-02-15T07:55:31.280Z,80.56
2019-02-15T07:57:59.351Z,80.17
2019-02-15T08:00:27.422Z,79.83
2019-02-15T08:02:55.488Z,79.48
2019-02-15T08:05:23.772Z,79.21
2019-02-15T08:07:51.796Z,78.58
2019-02-15T08:10:19.841Z,78.44
2019-02-15T08:12:48.032Z,78.05
2019-02-15T08:15:16.112Z,77.69
2019-02-15T08:17:44.230Z,77.98
2019-02-15T08:20:12.233Z,77.66
2019-02-15T08:22:40.401Z,77.82
2019-02-15T08:25:08.588Z,77.33
2019-02-15T08:27:36.601Z,76.73
2019-02-15T08:30:05.099Z,76.90
2019-02-15T08:32:34.592Z,76.14
2019-02-15T08:35:02.942Z,75.63
2019-02-15T08:37:30.960Z,76.07
2019-02-15T08:39:58.991Z,75.02
2019-02-15T08:42:27.105Z,75.05
2019-02-15T08:44:55.164Z,75.19
2019-02-15T08:47:23.261Z,74.18
2019-02-15T08:49:51.269Z,74.44
2019-02-15T08:52:19.547Z,73.87
2019-02-15T08:54:47.632Z,73.70
2019-02-15T08:57:15.599Z,73.02
2019-02-15T08:59:43.707Z,72.86
2019-02-15T09:02:18.907Z,71.70
2019-02-15T09:04:46.987Z,70.97
2019-02-15T09:07:15.001Z,70.64
2019-02-15T09:09:43.029Z,69.77
2019-02-15T09:12:11.023Z,68.91
2019-02-15T09:14:39.116Z,67.44
2019-02-15T09:17:07.212Z,66.08
2019-02-15T09:19:35.268Z,67.54
2019-02-15T09:22:03.304Z,67.32
2019-02-15T09:24:31.348Z,67.59
2019-02-15T09:27:02.222Z,68.07
2019-02-15T09:29:30.293Z,66.65
2019-02-15T09:31:58.386Z,65.64
2019-02-15T09:34:26.448Z,67.34
2019-02-15T09:36:54.558Z,65.75
2019-02-15T09:39:22.636Z,65.38
2019-02-15T09:41:50.728Z,62.75
2019-02-15T09:44:18.867Z,62.92
2019-02-15T09:46:46.984Z,61.72
2019-02-15T09:49:15.108Z,60.18
2019-02-15T09:51:43.259Z,63.45
2019-02-15T09:54:11.287Z,60.73
2019-02-15T09:56:39.345Z,62.37
2019-02-15T09:59:07.121Z,57.76
2019-02-15T10:01:35.216Z,57.19
2019-02-15T10:04:03.285Z,60.79
2019-02-15T10:06:31.399Z,57.33
2019-02-15T10:08:59.465Z,58.37
2019-02-15T10:11:27.580Z,60.60
2019-02-15T10:13:55.678Z,59.94
2019-02-15T10:16:29.792Z,56.43
2019-02-15T10:18:53.501Z,58.12
2019-02-15T10:21:21.566Z,54.08
2019-02-15T10:23:49.602Z,53.32
2019-02-15T10:26:17.644Z,51.19
2019-02-15T10:28:45.704Z,50.88
2019-02-15T10:31:13.742Z,51.11
2019-02-15T10:33:42.092Z,51.13
2019-02-15T10:36:10.187Z,52.01
2019-02-15T10:38:38.218Z,51.78
2019-02-15T10:41:06.289Z,50.33
2019-02-15T10:43:34.334Z,51.17
2019-02-15T10:46:02.405Z,51.26
2019-02-15T10:48:30.515Z,54.05
2019-02-15T10:50:58.752Z,50.07
2019-02-15T10:53:26.839Z,50.32
2019-02-15T10:55:54.836Z,48.96
2019-02-15T10:58:22.885Z,47.23
2019-02-15T11:00:50.900Z,46.15
2019-02-15T11:03:18.961Z,50.83
2019-02-15T11:05:47.251Z,45.60
2019-02-15T11:08:15.363Z,42.60
2019-02-15T11:10:43.489Z,42.59
2019-02-15T11:13:11.591Z,41.09
2019-02-15T11:15:39.743Z,41.83
2019-02-15T11:18:07.975Z,47.68
2019-02-15T11:20:36.299Z,40.28
2019-02-15T11:23:04.442Z,41.82
2019-02-15T11:25:32.560Z,41.77
2019-02-15T11:28:00.655Z,38.90
2019-02-15T11:30:28.730Z,38.63
2019-02-15T11:32:56.894Z,47.59
2019-02-15T11:35:25.097Z,45.14
2019-02-15T11:37:53.098Z,51.57
2019-02-15T11:40:21.629Z,40.96
2019-02-15T11:42:50.061Z,47.52
2019-02-15T11:45:18.248Z,53.79
2019-02-15T11:47:46.358Z,40.61
2019-02-15T11:50:35.184Z,46.39
2019-02-15T11:53:03.228Z,41.74
2019-02-15T11:55:31.534Z,48.84
2019-02-15T11:57:59.653Z,41.14
2019-02-15T12:00:31.654Z,47.96
2019-02-15T12:02:59.712Z,42.90
2019-02-15T12:05:27.866Z,47.81
2019-02-15T12:07:55.980Z,49.56
2019-02-15T12:10:24.189Z,50.16
2019-02-15T12:12:52.549Z,51.70
2019-02-15T12:15:20.891Z,51.30
2019-02-15T12:17:49.172Z,43.74
2019-02-15T12:20:17.613Z,45.29
2019-02-15T12:22:45.873Z,35.54
2019-02-15T12:25:14.300Z,51.80
2019-02-15T12:27:42.599Z,39.04
2019-02-15T12:30:11.556Z,37.54
2019-02-15T12:32:40.179Z,45.80
2019-02-15T12:35:08.858Z,44.80
2019-02-15T12:37:37.435Z,41.54
2019-02-15T12:40:06.198Z,51.19
2019-02-15T12:42:34.536Z,51.23
2019-02-15T12:45:02.954Z,51.09
2019-02-15T12:47:31.294Z,51.72
2019-02-15T12:49:59.631Z,49.76
2019-02-15T12:52:27.884Z,51.24
2019-02-15T12:54:56.280Z,47.70
2019-02-15T12:57:24.596Z,41.36
2019-02-15T12:59:52.920Z,50.80
2019-02-15T13:02:21.324Z,52.14
2019-02-15T13:04:49.568Z,52.15
2019-02-15T13:07:17.948Z,52.15
2019-02-15T13:09:46.364Z,44.21
2019-02-15T13:12:14.601Z,51.17
2019-02-15T13:14:42.845Z,35.11
2019-02-15T13:17:11.133Z,35.11
2019-02-15T13:19:39.395Z,42.50
2019-02-15T13:22:07.655Z,50.91
2019-02-15T13:24:35.925Z,49.17
2019-02-15T13:27:07.383Z,49.57
2019-02-15T13:29:38.281Z,48.87
2019-02-15T13:32:07.553Z,29.66
2019-02-15T13:34:35.984Z,41.60
2019-02-15T13:37:04.544Z,38.98
2019-02-15T13:39:32.857Z,44.13
2019-02-15T13:42:01.246Z,46.38
2019-02-15T13:44:30.224Z,48.25
2019-02-15T13:46:58.614Z,48.91
2019-02-15T13:49:26.979Z,48.91
2019-02-15T13:51:55.386Z,49.29
2019-02-15T13:54:24.040Z,50.56
2019-02-15T13:56:52.318Z,30.92
2019-02-15T13:59:20.704Z,50.42
2019-02-15T14:01:49.207Z,50.79
2019-02-15T14:04:17.658Z,35.89
2019-02-15T14:06:55.834Z,48.41
2019-02-15T14:09:24.456Z,34.91
2019-02-15T14:11:53.037Z,31.08
2019-02-15T14:14:21.393Z,30.79
2019-02-15T14:16:49.694Z,51.97
2019-02-15T14:19:18.021Z,52.29
2019-02-15T14:21:46.718Z,33.25
2019-02-15T14:24:15.208Z,51.06
2019-02-15T14:26:43.609Z,53.19
2019-02-15T14:29:12.279Z,53.19
2019-02-15T14:31:40.627Z,53.09
2019-02-15T14:34:08.857Z,54.11
2019-02-15T14:36:37.176Z,53.72
2019-02-15T14:39:08.227Z,49.33
2019-02-15T14:41:36.628Z,51.05
2019-02-15T14:44:05.030Z,36.16
2019-02-15T14:46:33.425Z,50.20
2019-02-15T14:49:01.801Z,33.31
2019-02-15T14:51:30.212Z,54.81
2019-02-15T14:53:58.601Z,50.76
2019-02-15T14:56:27.147Z,54.57
2019-02-15T14:58:55.664Z,51.18
2019-02-15T15:01:24.083Z,47.36
2019-02-15T15:03:52.540Z,36.60
2019-02-15T15:06:20.892Z,53.76
2019-02-15T15:08:49.271Z,55.86
2019-02-15T15:11:17.544Z,38.11
2019-02-15T15:13:46.008Z,36.82
2019-02-15T15:16:14.336Z,53.57
2019-02-15T15:18:42.618Z,55.41
2019-02-15T15:21:10.971Z,35.49
2019-02-15T15:23:39.283Z,41.80
2019-02-15T15:26:11.838Z,54.92
2019-02-15T15:28:37.539Z,54.10
2019-02-15T15:31:05.838Z,57.02
2019-02-15T15:33:34.240Z,45.94
2019-02-15T15:36:02.628Z,36.51
2019-02-15T15:38:30.923Z,37.97
2019-02-15T15:40:59.212Z,45.51
2019-02-15T15:43:27.589Z,39.94
2019-02-15T15:45:56.191Z,55.64
2019-02-15T15:48:24.632Z,39.54
2019-02-15T15:50:52.950Z,40.36
2019-02-15T15:53:21.214Z,52.43
2019-02-15T15:55:49.593Z,41.11
2019-02-15T15:58:18.341Z,40.93
2019-02-15T16:00:46.847Z,42.33
2019-02-15T16:03:15.144Z,52.08
2019-02-15T16:05:43.610Z,56.41
2019-02-15T16:08:12.327Z,59.24
2019-02-15T16:10:40.664Z,59.24
2019-02-15T16:13:09.510Z,47.89
2019-02-15T16:15:38.329Z,53.97
2019-02-15T16:18:06.836Z,47.52
2019-02-15T16:20:35.206Z,43.33
2019-02-15T16:23:03.825Z,48.83
2019-02-15T16:25:32.135Z,59.64
2019-02-15T16:28:00.451Z,59.92
2019-02-15T16:30:29.038Z,58.78
2019-02-15T16:32:57.530Z,57.21
2019-02-15T16:35:26.006Z,44.81
2019-02-15T16:37:54.574Z,44.48
2019-02-15T16:40:22.972Z,57.07
2019-02-15T16:42:51.799Z,56.87
2019-02-15T16:45:20.953Z,44.24
2019-02-15T16:47:49.259Z,56.14
2019-02-15T16:50:17.566Z,50.87
2019-02-15T16:52:45.900Z,45.25
2019-02-15T16:55:14.161Z,45.99
2019-02-15T16:57:42.619Z,47.82
2019-02-15T17:00:11.587Z,46.80
2019-02-15T17:02:39.909Z,54.73
2019-02-15T17:05:08.369Z,59.76
2019-02-15T17:07:36.694Z,49.20
2019-02-15T17:10:05.265Z,50.40
2019-02-15T17:12:33.678Z,47.34
2019-02-15T17:15:01.977Z,48.73
2019-02-15T17:17:30.461Z,59.77
2019-02-15T17:19:58.904Z,52.55
2019-02-15T17:22:27.430Z,52.62
2019-02-15T17:24:56.024Z,54.05
2019-02-15T17:27:24.447Z,55.91
2019-02-15T17:29:52.717Z,55.76
2019-02-15T17:32:20.983Z,63.60
2019-02-15T17:34:49.292Z,55.18
2019-02-15T17:37:17.586Z,55.62
2019-02-15T17:39:46.246Z,55.44
2019-02-15T17:42:14.598Z,64.50
2019-02-15T17:44:42.907Z,60.29
2019-02-15T17:47:11.317Z,64.57
2019-02-15T17:49:39.579Z,55.81
2019-02-15T17:52:08.055Z,56.02
2019-02-15T17:54:36.323Z,58.38
2019-02-15T17:57:04.789Z,58.81
2019-02-15T17:59:33.213Z,57.95
2019-02-15T18:02:04.051Z,64.77
2019-02-15T18:04:31.131Z,65.67
2019-02-15T18:06:59.770Z,65.06
2019-02-15T18:09:28.411Z,64.96
2019-02-15T18:11:56.897Z,64.94
2019-02-15T18:14:25.283Z,65.26
2019-02-15T18:16:53.919Z,59.26
2019-02-15T18:19:22.433Z,64.76
2019-02-15T18:21:51.256Z,64.10
2019-02-15T18:24:19.976Z,65.91
2019-02-15T18:26:48.320Z,65.14
2019-02-15T18:31:50.945Z,60.87
2019-02-15T18:34:20.219Z,67.29
2019-02-15T18:36:48.910Z,66.12
2019-02-15T18:39:17.937Z,66.18
2019-02-15T18:41:46.763Z,65.35
2019-02-15T18:44:15.231Z,65.93
2019-02-15T18:46:43.718Z,61.04
2019-02-15T18:49:19.204Z,65.43
2019-02-15T18:51:42.680Z,65.01
2019-02-15T18:54:11.569Z,64.87
2019-02-15T18:56:40.278Z,64.62
2019-02-15T18:59:09.739Z,63.25
2019-02-15T19:01:38.357Z,65.68
2019-02-15T19:04:07.176Z,64.80
2019-02-15T19:06:35.960Z,64.14
2019-02-15T19:09:06.387Z,61.84
2019-02-15T19:11:35.007Z,65.37
2019-02-15T19:14:03.547Z,65.51
2019-02-15T19:16:32.239Z,62.51
2019-02-15T19:19:00.671Z,63.73
2019-02-15T19:21:29.774Z,64.21
2019-02-15T19:23:58.384Z,63.91
2019-02-15T19:26:27.138Z,66.15
2019-02-15T19:28:55.755Z,66.24
2019-02-15T19:31:24.626Z,65.94
2019-02-15T19:33:53.600Z,66.31
2019-02-15T19:36:22.494Z,63.72
2019-02-15T19:38:51.549Z,64.58
2019-02-15T19:41:21.029Z,66.86
2019-02-15T19:43:50.582Z,64.15
2019-02-15T19:46:19.962Z,65.83
2019-02-15T19:48:49.518Z,64.34
2019-02-15T19:51:19.222Z,64.18
2019-02-15T19:53:48.152Z,64.80
2019-02-15T19:56:16.959Z,64.89
2019-02-15T19:58:46.432Z,65.14
2019-02-15T20:01:15.743Z,64.62
2019-02-15T20:03:44.832Z,65.01
2019-02-15T20:06:13.794Z,65.75
2019-02-15T20:08:42.775Z,65.56
2019-02-15T20:11:12.071Z,64.93
2019-02-15T20:13:41.015Z,65.13
2019-02-15T20:16:10.653Z,65.47
2019-02-15T20:18:41.959Z,65.60
2019-02-15T20:21:12.242Z,65.68
2019-02-15T20:23:41.816Z,65.20
2019-02-15T20:26:11.075Z,64.69
2019-02-15T20:28:40.758Z,65.46
2019-02-15T20:31:11.172Z,66.06
2019-02-15T20:33:40.119Z,66.73
2019-02-15T20:36:20.533Z,66.85
2019-02-15T20:38:51.663Z,65.98
2019-02-15T20:41:20.674Z,66.33
2019-02-15T20:43:50.535Z,65.87
2019-02-15T20:46:20.102Z,66.16
2019-02-15T20:48:49.603Z,66.82
2019-02-15T20:51:18.895Z,66.46
2019-02-15T20:53:51.536Z,67.03
2019-02-15T20:56:20.424Z,67.58
2019-02-15T20:58:49.743Z,66.94
2019-02-15T21:01:20.625Z,66.61
2019-02-15T21:03:49.761Z,66.21
2019-02-15T21:06:18.754Z,67.44
2019-02-15T21:08:47.703Z,68.57
2019-02-15T21:11:16.406Z,68.72
2019-02-15T21:13:45.734Z,66.85
2019-02-15T21:16:15.030Z,67.70
2019-02-15T21:18:43.692Z,68.63
2019-02-15T21:21:16.115Z,68.44
2019-02-15T21:23:45.013Z,68.06
2019-02-15T21:26:14.076Z,68.18
2019-02-15T21:28:42.829Z,66.62
2019-02-15T21:31:12.281Z,66.92
2019-02-15T21:33:40.895Z,66.46
2019-02-15T21:36:09.855Z,69.58
2019-02-15T21:38:38.756Z,68.29
2019-02-15T21:41:08.350Z,70.00
2019-02-15T21:43:36.900Z,70.21
2019-02-15T21:46:05.614Z,69.83
2019-02-15T21:48:34.091Z,70.11
2019-02-15T21:51:02.790Z,67.40
2019-02-15T21:53:31.801Z,69.37
2019-02-15T21:56:00.501Z,68.39
2019-02-15T21:58:28.980Z,69.01
2019-02-15T22:00:58.097Z,66.52
2019-02-15T22:03:26.899Z,70.28
2019-02-15T22:05:55.275Z,70.50
2019-02-15T22:08:24.296Z,68.27
2019-02-15T22:10:53.332Z,67.19
2019-02-15T22:13:22.393Z,68.09
2019-02-15T22:15:52.263Z,69.04
2019-02-15T22:18:21.253Z,67.65
2019-02-15T22:20:49.834Z,71.07
2019-02-15T22:23:18.385Z,69.19
2019-02-15T22:25:47.301Z,68.03
2019-02-15T22:28:15.857Z,69.23
2019-02-15T22:30:44.742Z,71.38
2019-02-15T22:33:12.987Z,70.19
2019-02-15T22:35:41.476Z,66.93
2019-02-15T22:38:09.833Z,67.02
2019-02-15T22:40:40.088Z,70.50
2019-02-15T22:43:20.249Z,66.55
2019-02-15T22:45:48.623Z,70.15
2019-02-15T22:48:17.323Z,68.21
2019-02-15T22:50:45.546Z,69.94
2019-02-15T22:53:13.930Z,69.73
2019-02-15T22:55:42.206Z,69.79
2019-02-15T22:58:10.811Z,69.40
2019-02-15T23:00:48.711Z,69.45
2019-02-15T23:03:18.850Z,69.27
2019-02-15T23:05:47.113Z,68.79
2019-02-15T23:08:15.450Z,69.22
2019-02-15T23:10:43.744Z,69.12
2019-02-15T23:13:12.121Z,69.62
2019-02-15T23:15:40.449Z,69.68
2019-02-15T23:18:08.698Z,69.02
2019-02-15T23:20:44.932Z,69.31
2019-02-15T23:23:06.905Z,66.36
2019-02-15T23:25:35.156Z,67.36
2019-02-15T23:28:03.570Z,69.10
2019-02-15T23:30:31.867Z,69.52
2019-02-15T23:33:00.151Z,68.62
2019-02-15T23:35:28.635Z,69.35
2019-02-15T23:37:56.941Z,67.46
2019-02-15T23:40:25.185Z,66.69
2019-02-15T23:42:53.435Z,68.96
2019-02-15T23:45:21.689Z,68.38
2019-02-15T23:47:49.913Z,69.00
2019-02-15T23:50:18.365Z,67.72
2019-02-15T23:52:46.728Z,68.09
2019-02-15T23:55:14.956Z,68.42
2019-02-15T23:57:43.279Z,68.58
